Mc Sherrystown, Pennsylvania
Current Conditions -  °F | °C
As of 10:53 PM on Wednesday 26 Nov 2014 (Local Time) from KTHV Reporting Station
Overcast Overcast  
Wind Chill: 27°   Ceiling: 12000
Heat Index: 34°   Visibility: 10mi
Dew Point: 30°   Wind: 8mph
Humidity: 85%   Direction: 300°WNW
Pressure: 29.96"   Gusts: NA
Location:  39.8056°N, 77.0186°W
Report Text: KTHV 270353Z AUTO 30007KT 10SM FEW020 SCT055 OVC120 01/M01 A2996 RMK AO2 SLP153 T00111011
Loading
Personal Weather Stations






























Interactive Weather Map New forecast layout! Learn more

10-Day Weather Forecast

Advertisements
Track Severe Weather on mobile